Time;durP1;ratioP1;P1;durP2;ratioP2;P2;SDS_P1;SDS_P2;PMS_P1;PMS_P2;Temp;Humidity;BMP_temperature;BMP_pressure;BME280_temperature;BME280_humidity;BME280_pressure;Samples;Min_cycle;Max_cycle;Signal;HPM_P1;HPM_P2
2022/10/29 00:00:22;;;;;;;;;;;16.40;96.90;;;;;;4985734;28;19917;-69
2022/10/29 00:02:47;;;;;;;;;;;16.40;96.90;;;;;;4986514;28;19960;-69
2022/10/29 00:05:13;;;;;;;;;;;16.40;96.90;;;;;;4986047;28;19921;-68
2022/10/29 00:07:38;;;;;;;;;;;16.40;96.90;;;;;;4985776;28;20355;-68
2022/10/29 00:10:04;;;;;;;;;;;16.30;96.80;;;;;;4985521;28;19933;-69
2022/10/29 00:12:30;;;;;;;;;;;16.30;96.90;;;;;;4985016;28;19921;-69
2022/10/29 00:14:55;;;;;;;;;;;16.30;96.90;;;;;;4988879;28;19925;-69
2022/10/29 00:17:20;;;;;;;;;;;16.30;96.90;;;;;;4985845;28;19910;-69
2022/10/29 00:19:46;;;;;;;;;;;16.30;96.80;;;;;;4985954;28;19914;-69
2022/10/29 00:22:11;;;;;;;;;;;16.30;96.90;;;;;;4984720;28;20314;-69
2022/10/29 00:24:37;;;;;;;;;;;16.30;96.90;;;;;;4985990;28;19914;-68
2022/10/29 00:27:02;;;;;;;;;;;16.30;96.90;;;;;;4985926;28;19928;-69
2022/10/29 00:29:28;;;;;;;;;;;16.30;96.90;;;;;;4985568;28;20455;-69
2022/10/29 00:31:53;;;;;;;;;;;16.30;96.90;;;;;;4985939;28;20070;-68
2022/10/29 00:34:19;;;;;;;;;;;16.30;96.90;;;;;;4985584;28;19925;-69
2022/10/29 00:36:44;;;;;;;;;;;16.20;96.90;;;;;;4985411;28;20635;-69
2022/10/29 00:39:16;;;;;;;;;;;16.20;96.90;;;;;;4984899;28;19914;-69
2022/10/29 00:41:42;;;;;;;;;;;16.20;96.90;;;;;;4985399;28;19920;-69
2022/10/29 00:44:31;;;;;;;;;;;16.20;96.90;;;;;;4985306;28;20454;-69
2022/10/29 00:47:15;;;;;;;;;;;16.20;97.00;;;;;;4984361;28;19984;-68
2022/10/29 00:49:41;;;;;;;;;;;16.20;96.90;;;;;;4984572;28;19914;-68
2022/10/29 00:52:07;;;;;;;;;;;16.20;96.90;;;;;;4985599;28;19920;-68
2022/10/29 00:54:35;;;;;;;;;;;16.20;97.10;;;;;;4985036;28;19913;-69
2022/10/29 00:57:03;;;;;;;;;;;16.20;96.90;;;;;;4985853;28;19914;-69
2022/10/29 00:59:29;;;;;;;;;;;16.20;96.90;;;;;;4985085;28;19918;-69
2022/10/29 01:01:54;;;;;;;;;;;16.20;96.90;;;;;;4985019;28;20472;-69
2022/10/29 01:04:20;;;;;;;;;;;16.20;96.90;;;;;;4985799;28;19917;-69
2022/10/29 01:06:46;;;;;;;;;;;16.20;96.90;;;;;;4985626;28;19945;-69
2022/10/29 01:09:12;;;;;;;;;;;16.20;96.90;;;;;;4988646;28;19992;-69
2022/10/29 01:11:37;;;;;;;;;;;16.10;96.90;;;;;;4987616;28;20397;-68
2022/10/29 01:14:14;;;;;;;;;;;16.10;96.90;;;;;;4989109;28;19972;-68
2022/10/29 01:16:48;;;;;;;;;;;16.10;96.90;;;;;;4988940;28;19953;-69
2022/10/29 01:19:33;;;;;;;;;;;16.10;97.00;;;;;;4988303;28;20393;-68
2022/10/29 01:21:58;;;;;;;;;;;16.10;96.90;;;;;;4988698;28;19917;-69
2022/10/29 01:24:42;;;;;;;;;;;16.10;97.00;;;;;;4988304;28;20287;-69
2022/10/29 01:27:26;;;;;;;;;;;16.10;97.00;;;;;;4988574;28;19921;-68
2022/10/29 01:29:57;;;;;;;;;;;16.10;97.00;;;;;;4988892;28;20371;-69
2022/10/29 01:32:23;;;;;;;;;;;16.10;97.00;;;;;;4988683;28;19913;-69
2022/10/29 01:34:51;;;;;;;;;;;16.10;97.10;;;;;;4987082;28;19914;-69
2022/10/29 01:37:27;;;;;;;;;;;16.00;97.00;;;;;;4988903;28;19920;-69
2022/10/29 01:40:01;;;;;;;;;;;16.00;97.00;;;;;;4989019;28;19914;-68
2022/10/29 01:42:31;;;;;;;;;;;16.00;97.10;;;;;;4988151;28;20600;-68
2022/10/29 01:45:04;;;;;;;;;;;16.00;97.10;;;;;;4988444;28;19914;-69
2022/10/29 01:47:31;;;;;;;;;;;16.00;97.10;;;;;;4988300;28;19948;-69
2022/10/29 01:49:59;;;;;;;;;;;16.00;97.10;;;;;;4987916;28;19984;-68
2022/10/29 01:52:26;;;;;;;;;;;16.00;97.10;;;;;;4988191;28;19922;-69
2022/10/29 01:54:51;;;;;;;;;;;16.00;97.20;;;;;;4988342;28;19914;-68
2022/10/29 01:57:31;;;;;;;;;;;15.90;97.10;;;;;;4987412;28;19914;-68
2022/10/29 01:59:59;;;;;;;;;;;15.90;97.00;;;;;;4988172;28;19914;-70
2022/10/29 02:02:29;;;;;;;;;;;15.90;97.10;;;;;;4988321;28;19914;-69
2022/10/29 02:04:55;;;;;;;;;;;15.90;97.40;;;;;;4988445;28;19949;-69
2022/10/29 02:07:38;;;;;;;;;;;15.90;97.20;;;;;;4988072;28;20023;-68
2022/10/29 02:10:03;;;;;;;;;;;15.90;97.10;;;;;;4987526;28;20352;-69
2022/10/29 02:12:33;;;;;;;;;;;15.90;97.10;;;;;;4987997;28;19910;-69
2022/10/29 02:14:58;;;;;;;;;;;15.90;97.20;;;;;;4987552;28;20004;-69
2022/10/29 02:17:24;;;;;;;;;;;15.90;97.20;;;;;;4987169;28;20342;-69
2022/10/29 02:19:49;;;;;;;;;;;15.80;97.10;;;;;;4987275;28;19914;-69
2022/10/29 02:22:15;;;;;;;;;;;15.80;97.20;;;;;;4987927;28;19917;-69
2022/10/29 02:24:40;;;;;;;;;;;15.80;97.30;;;;;;4987865;28;20217;-69
2022/10/29 02:27:07;;;;;;;;;;;15.80;97.30;;;;;;4987652;28;19918;-69
2022/10/29 02:29:32;;;;;;;;;;;15.80;97.40;;;;;;4986991;28;19914;-68
2022/10/29 02:31:58;;;;;;;;;;;15.80;97.30;;;;;;4967792;28;19910;-69
2022/10/29 02:34:23;;;;;;;;;;;15.80;97.30;;;;;;4980189;28;20347;-68
2022/10/29 02:36:49;;;;;;;;;;;15.70;97.30;;;;;;4987440;28;19913;-69
2022/10/29 02:39:14;;;;;;;;;;;15.70;97.20;;;;;;4987460;28;20041;-69
2022/10/29 02:41:39;;;;;;;;;;;15.80;97.30;;;;;;4986989;28;19914;-69
2022/10/29 02:44:05;;;;;;;;;;;15.70;97.40;;;;;;4985934;28;19921;-69
2022/10/29 02:46:30;;;;;;;;;;;15.70;97.60;;;;;;4987063;28;19921;-68
2022/10/29 02:48:56;;;;;;;;;;;15.70;97.40;;;;;;4987008;28;20488;-69
2022/10/29 02:51:21;;;;;;;;;;;15.70;97.40;;;;;;4986009;28;20607;-69
2022/10/29 02:53:47;;;;;;;;;;;15.70;97.40;;;;;;4987145;28;19914;-69
2022/10/29 02:56:12;;;;;;;;;;;15.70;97.40;;;;;;4986904;28;19960;-69
2022/10/29 02:58:38;;;;;;;;;;;15.60;97.30;;;;;;4986866;28;19920;-69
2022/10/29 03:01:03;;;;;;;;;;;15.60;97.40;;;;;;4985591;28;19918;-68
2022/10/29 03:03:29;;;;;;;;;;;15.60;97.40;;;;;;4986580;28;19914;-68
2022/10/29 03:05:55;;;;;;;;;;;15.60;97.50;;;;;;4986020;28;19917;-69
2022/10/29 03:08:20;;;;;;;;;;;15.60;97.50;;;;;;4980218;28;19961;-68
2022/10/29 03:10:46;;;;;;;;;;;15.50;97.50;;;;;;4986299;28;20597;-69
2022/10/29 03:13:11;;;;;;;;;;;15.50;97.50;;;;;;4983598;28;19913;-69
2022/10/29 03:15:37;;;;;;;;;;;15.60;97.50;;;;;;4985696;28;19914;-68
2022/10/29 03:18:03;;;;;;;;;;;15.50;97.50;;;;;;4987347;28;20263;-68
2022/10/29 03:20:29;;;;;;;;;;;15.50;97.50;;;;;;4986630;28;19914;-68
2022/10/29 03:22:54;;;;;;;;;;;15.50;97.60;;;;;;4986069;28;20430;-69
2022/10/29 03:25:20;;;;;;;;;;;15.50;97.60;;;;;;4986660;28;20363;-68
2022/10/29 03:27:47;;;;;;;;;;;15.50;97.50;;;;;;4986194;28;19928;-69
2022/10/29 03:30:13;;;;;;;;;;;15.50;97.50;;;;;;4985295;28;19914;-68
2022/10/29 03:32:40;;;;;;;;;;;15.40;97.50;;;;;;4986568;28;19968;-68
2022/10/29 03:35:06;;;;;;;;;;;15.40;97.50;;;;;;4984667;28;20596;-68
2022/10/29 03:37:31;;;;;;;;;;;15.40;97.50;;;;;;4981801;28;20522;-69
2022/10/29 03:39:57;;;;;;;;;;;15.40;97.50;;;;;;4985606;28;20040;-69
2022/10/29 03:42:22;;;;;;;;;;;15.40;97.60;;;;;;4986747;28;19913;-69
2022/10/29 03:44:48;;;;;;;;;;;15.40;97.60;;;;;;4986650;28;19964;-69
2022/10/29 03:47:13;;;;;;;;;;;15.40;97.60;;;;;;4986492;28;20012;-69
2022/10/29 03:49:39;;;;;;;;;;;15.40;97.60;;;;;;4986498;28;20009;-69
2022/10/29 03:52:04;;;;;;;;;;;15.40;97.60;;;;;;4986178;28;20347;-69
2022/10/29 03:54:29;;;;;;;;;;;15.30;97.60;;;;;;4985948;28;20016;-68
2022/10/29 03:56:55;;;;;;;;;;;15.30;97.60;;;;;;4985937;28;19953;-68
2022/10/29 03:59:20;;;;;;;;;;;15.30;97.60;;;;;;4986105;28;20270;-68
2022/10/29 04:01:46;;;;;;;;;;;15.30;97.60;;;;;;4986412;28;19918;-68
2022/10/29 04:04:11;;;;;;;;;;;15.30;97.60;;;;;;4985691;28;20407;-68
2022/10/29 04:06:37;;;;;;;;;;;15.30;97.60;;;;;;4985741;28;19913;-68
2022/10/29 04:09:02;;;;;;;;;;;15.30;97.60;;;;;;4985387;28;20279;-69
2022/10/29 04:11:28;;;;;;;;;;;15.30;97.60;;;;;;4985323;28;19914;-69
2022/10/29 04:13:53;;;;;;;;;;;15.30;97.50;;;;;;4985712;28;19972;-68
2022/10/29 04:16:19;;;;;;;;;;;15.30;97.60;;;;;;4985505;28;19910;-69
2022/10/29 04:18:47;;;;;;;;;;;15.30;97.60;;;;;;4985737;28;20386;-68
2022/10/29 04:21:13;;;;;;;;;;;15.30;97.60;;;;;;4985423;28;19917;-69
2022/10/29 04:23:38;;;;;;;;;;;15.20;97.60;;;;;;4985899;28;19914;-69
2022/10/29 04:26:04;;;;;;;;;;;15.20;97.60;;;;;;4985300;28;19914;-69
2022/10/29 04:28:29;;;;;;;;;;;15.20;97.60;;;;;;4985706;28;20290;-69
2022/10/29 04:30:55;;;;;;;;;;;15.30;97.60;;;;;;4985080;28;19922;-69
2022/10/29 04:33:20;;;;;;;;;;;15.20;97.60;;;;;;4985370;28;19920;-68
2022/10/29 04:35:53;;;;;;;;;;;15.20;97.60;;;;;;4985494;28;19941;-69
2022/10/29 04:38:18;;;;;;;;;;;15.20;97.60;;;;;;4985609;28;19913;-69
2022/10/29 04:40:44;;;;;;;;;;;15.20;97.60;;;;;;4985802;28;19925;-68
2022/10/29 04:43:09;;;;;;;;;;;15.20;97.60;;;;;;4989778;28;19913;-69
2022/10/29 04:45:34;;;;;;;;;;;15.20;97.60;;;;;;4989655;28;19921;-69
2022/10/29 04:48:01;;;;;;;;;;;15.20;97.60;;;;;;4986975;28;19929;-69
2022/10/29 04:50:27;;;;;;;;;;;15.20;97.60;;;;;;4989218;28;20012;-69
2022/10/29 04:52:52;;;;;;;;;;;15.10;97.60;;;;;;4989709;28;20065;-69
2022/10/29 04:55:17;;;;;;;;;;;15.20;97.60;;;;;;4989629;28;19921;-69
2022/10/29 04:57:47;;;;;;;;;;;15.10;97.50;;;;;;4988867;28;20318;-68
2022/10/29 05:00:13;;;;;;;;;;;15.10;97.50;;;;;;4988744;28;19910;-68
2022/10/29 05:02:39;;;;;;;;;;;15.10;97.50;;;;;;4988871;28;19917;-68
2022/10/29 05:05:04;;;;;;;;;;;15.20;97.50;;;;;;4988086;28;19925;-68
2022/10/29 05:07:30;;;;;;;;;;;15.10;97.50;;;;;;4988617;28;19921;-68
2022/10/29 05:09:55;;;;;;;;;;;15.10;97.40;;;;;;4988795;28;19922;-68
2022/10/29 05:12:21;;;;;;;;;;;15.10;97.50;;;;;;4988139;28;20322;-69
2022/10/29 05:14:46;;;;;;;;;;;15.20;97.50;;;;;;4988593;28;19967;-69
2022/10/29 05:17:12;;;;;;;;;;;15.10;97.40;;;;;;4989156;28;19915;-68
2022/10/29 05:19:39;;;;;;;;;;;15.10;97.40;;;;;;4986999;28;20351;-69
2022/10/29 05:22:04;;;;;;;;;;;15.10;97.40;;;;;;4988993;28;19988;-68
2022/10/29 05:24:30;;;;;;;;;;;15.10;97.40;;;;;;4988841;28;19921;-69
2022/10/29 05:26:55;;;;;;;;;;;15.10;97.40;;;;;;4988381;28;20371;-69
2022/10/29 05:29:21;;;;;;;;;;;15.10;97.40;;;;;;4988326;28;19914;-68
2022/10/29 05:31:46;;;;;;;;;;;15.10;97.40;;;;;;4988017;28;19914;-69
2022/10/29 05:34:12;;;;;;;;;;;15.10;97.40;;;;;;4993133;28;19925;-69
2022/10/29 05:36:37;;;;;;;;;;;15.10;97.40;;;;;;4996122;28;20005;-69
2022/10/29 05:39:03;;;;;;;;;;;15.10;97.40;;;;;;4996902;28;19913;-69
2022/10/29 05:41:28;;;;;;;;;;;15.10;97.40;;;;;;4986660;28;20563;-68
2022/10/29 05:43:53;;;;;;;;;;;15.10;97.40;;;;;;4988164;28;19922;-69
2022/10/29 05:46:19;;;;;;;;;;;15.10;97.40;;;;;;4987310;28;20506;-68
2022/10/29 05:48:44;;;;;;;;;;;15.10;97.40;;;;;;4988608;28;19917;-68
2022/10/29 05:51:10;;;;;;;;;;;15.10;97.40;;;;;;4987680;28;20037;-69
2022/10/29 05:53:35;;;;;;;;;;;15.10;97.40;;;;;;4987179;28;19918;-69
2022/10/29 05:56:01;;;;;;;;;;;15.10;97.40;;;;;;4988165;28;20363;-68
2022/10/29 05:58:26;;;;;;;;;;;15.10;97.40;;;;;;4988672;28;19914;-69
2022/10/29 06:00:52;;;;;;;;;;;15.10;97.40;;;;;;4987933;28;19983;-68
2022/10/29 06:03:18;;;;;;;;;;;15.10;97.40;;;;;;4987514;28;19910;-69
2022/10/29 06:05:47;;;;;;;;;;;15.10;97.40;;;;;;4987753;28;19917;-69
2022/10/29 06:08:13;;;;;;;;;;;15.10;97.30;;;;;;4987657;28;19914;-69
2022/10/29 06:10:38;;;;;;;;;;;15.10;97.30;;;;;;4987452;28;19922;-69
2022/10/29 06:13:14;;;;;;;;;;;15.10;97.40;;;;;;4987651;28;20386;-69
2022/10/29 06:15:40;;;;;;;;;;;15.10;97.30;;;;;;4987694;28;19910;-69
2022/10/29 06:18:05;;;;;;;;;;;15.10;97.30;;;;;;4986928;28;19914;-69
2022/10/29 06:20:31;;;;;;;;;;;15.10;97.30;;;;;;4987371;28;19914;-69
2022/10/29 06:22:57;;;;;;;;;;;15.10;97.30;;;;;;4987679;28;19914;-68
2022/10/29 06:25:23;;;;;;;;;;;15.10;97.40;;;;;;4987503;28;19936;-69
2022/10/29 06:27:56;;;;;;;;;;;15.10;97.30;;;;;;4986810;28;19934;-68
2022/10/29 06:30:21;;;;;;;;;;;15.10;97.40;;;;;;4967946;28;19914;-68
2022/10/29 06:32:47;;;;;;;;;;;15.10;97.40;;;;;;4967601;28;19922;-69
2022/10/29 06:35:12;;;;;;;;;;;15.00;97.30;;;;;;4967376;28;19914;-69
2022/10/29 06:37:38;;;;;;;;;;;15.10;97.30;;;;;;4978680;28;20009;-69
2022/10/29 06:40:03;;;;;;;;;;;15.10;97.30;;;;;;4986799;28;19944;-69
2022/10/29 06:42:29;;;;;;;;;;;15.00;97.30;;;;;;4987169;28;20391;-69
2022/10/29 06:44:54;;;;;;;;;;;15.10;97.30;;;;;;4986653;28;20244;-68
2022/10/29 06:47:20;;;;;;;;;;;15.10;97.30;;;;;;4987374;28;19918;-68
2022/10/29 06:49:45;;;;;;;;;;;15.10;97.30;;;;;;4986665;28;19918;-69
2022/10/29 06:52:11;;;;;;;;;;;15.10;97.30;;;;;;4986720;28;19913;-69
2022/10/29 06:54:36;;;;;;;;;;;15.10;97.20;;;;;;4986504;28;19920;-69
2022/10/29 06:57:02;;;;;;;;;;;15.10;97.30;;;;;;4987226;28;19921;-69
2022/10/29 06:59:27;;;;;;;;;;;15.10;97.30;;;;;;4986292;28;20275;-68
2022/10/29 07:01:53;;;;;;;;;;;15.10;97.20;;;;;;4986667;28;19953;-68
2022/10/29 07:04:19;;;;;;;;;;;15.10;97.20;;;;;;4986086;28;19913;-69
2022/10/29 07:06:45;;;;;;;;;;;15.10;97.20;;;;;;4986494;28;19996;-69
2022/10/29 07:09:10;;;;;;;;;;;15.10;97.20;;;;;;4985806;28;19921;-69
2022/10/29 07:11:36;;;;;;;;;;;15.10;97.20;;;;;;4982217;28;19914;-69
2022/10/29 07:14:01;;;;;;;;;;;15.10;97.10;;;;;;4986437;28;19996;-68
2022/10/29 07:16:27;;;;;;;;;;;15.10;97.10;;;;;;4985916;28;19917;-68
2022/10/29 07:18:52;;;;;;;;;;;15.10;97.10;;;;;;4986536;28;20459;-68
2022/10/29 07:21:18;;;;;;;;;;;15.10;97.10;;;;;;4985533;28;19917;-69
2022/10/29 07:23:43;;;;;;;;;;;15.10;97.10;;;;;;4986542;28;19924;-68
2022/10/29 07:26:09;;;;;;;;;;;15.10;97.10;;;;;;4986319;28;19938;-69
2022/10/29 07:28:34;;;;;;;;;;;15.10;97.00;;;;;;4986234;28;20031;-69
2022/10/29 07:31:00;;;;;;;;;;;15.10;97.00;;;;;;4985750;28;19914;-69
2022/10/29 07:33:29;;;;;;;;;;;15.20;97.00;;;;;;4985992;28;19917;-69
2022/10/29 07:35:58;;;;;;;;;;;15.20;97.00;;;;;;4986053;28;20630;-69
2022/10/29 07:38:24;;;;;;;;;;;15.20;97.00;;;;;;4985826;28;19914;-69
2022/10/29 07:40:50;;;;;;;;;;;15.20;97.00;;;;;;4985982;28;19920;-68
2022/10/29 07:43:16;;;;;;;;;;;15.20;97.00;;;;;;4987864;28;19920;-68
2022/10/29 07:45:48;;;;;;;;;;;15.20;97.00;;;;;;5003312;28;20264;-69
2022/10/29 07:48:13;;;;;;;;;;;15.20;96.90;;;;;;5004240;28;20912;-69
2022/10/29 07:50:39;;;;;;;;;;;15.20;96.90;;;;;;4991187;28;19921;-69
2022/10/29 07:53:05;;;;;;;;;;;15.30;96.90;;;;;;4986055;28;19918;-69
2022/10/29 07:55:30;;;;;;;;;;;15.30;96.80;;;;;;4993542;28;19917;-68
2022/10/29 07:58:01;;;;;;;;;;;15.30;96.80;;;;;;4996337;28;19921;-68
2022/10/29 08:00:27;;;;;;;;;;;15.30;96.70;;;;;;4992544;28;19960;-69
2022/10/29 08:02:53;;;;;;;;;;;15.30;96.70;;;;;;4994798;28;20636;-69
2022/10/29 08:05:19;;;;;;;;;;;15.30;96.70;;;;;;4996625;28;19921;-68
2022/10/29 08:07:44;;;;;;;;;;;15.30;96.70;;;;;;4992934;28;19922;-68
2022/10/29 08:10:10;;;;;;;;;;;15.30;96.70;;;;;;4994127;28;20367;-68
2022/10/29 08:12:35;;;;;;;;;;;15.30;96.70;;;;;;4994282;28;19914;-69
2022/10/29 08:15:00;;;;;;;;;;;15.40;96.70;;;;;;4995627;28;19922;-68
2022/10/29 08:17:28;;;;;;;;;;;15.40;96.70;;;;;;4994327;28;19925;-68
2022/10/29 08:19:53;;;;;;;;;;;15.40;96.70;;;;;;4994586;28;19921;-69
2022/10/29 08:22:19;;;;;;;;;;;15.40;96.80;;;;;;4992783;28;20306;-69
2022/10/29 08:24:44;;;;;;;;;;;15.40;96.70;;;;;;4995076;28;19913;-68
2022/10/29 08:27:10;;;;;;;;;;;15.50;96.80;;;;;;4997580;28;19918;-68
2022/10/29 08:29:35;;;;;;;;;;;15.50;96.70;;;;;;4999315;28;20585;-68
2022/10/29 08:32:01;;;;;;;;;;;15.50;96.70;;;;;;5005079;28;19913;-69
2022/10/29 08:34:26;;;;;;;;;;;15.50;96.70;;;;;;5004837;28;19913;-69
2022/10/29 08:36:52;;;;;;;;;;;15.50;96.70;;;;;;4999397;28;19921;-69
2022/10/29 08:39:17;;;;;;;;;;;15.60;96.70;;;;;;4985707;28;20371;-69
2022/10/29 08:41:52;;;;;;;;;;;15.60;96.60;;;;;;4984796;28;19918;-69
2022/10/29 08:44:17;;;;;;;;;;;15.60;96.60;;;;;;4988324;28;19971;-68
2022/10/29 08:46:46;;;;;;;;;;;15.60;96.60;;;;;;4997039;28;20069;-69
2022/10/29 08:49:24;;;;;;;;;;;15.70;96.60;;;;;;5003925;28;19913;-69
2022/10/29 08:51:55;;;;;;;;;;;15.70;96.50;;;;;;4985606;28;20499;-69
2022/10/29 08:54:21;;;;;;;;;;;15.70;96.50;;;;;;4985289;28;20397;-68
2022/10/29 08:56:53;;;;;;;;;;;15.70;96.50;;;;;;4985199;28;19944;-68
2022/10/29 08:59:20;;;;;;;;;;;15.70;96.50;;;;;;4985490;28;20663;-68
2022/10/29 09:01:46;;;;;;;;;;;15.80;96.50;;;;;;4986365;28;20417;-69
2022/10/29 09:04:25;;;;;;;;;;;15.80;96.40;;;;;;4984681;28;19952;-68
2022/10/29 09:07:11;;;;;;;;;;;15.90;96.40;;;;;;4985202;28;19914;-69
2022/10/29 09:09:36;;;;;;;;;;;15.90;96.40;;;;;;4984416;28;19922;-70
2022/10/29 09:12:11;;;;;;;;;;;16.00;96.40;;;;;;4985200;28;19916;-70
2022/10/29 09:14:55;;;;;;;;;;;16.10;96.20;;;;;;4985226;28;19918;-69
2022/10/29 09:17:26;;;;;;;;;;;16.10;96.20;;;;;;4985116;28;19950;-69
2022/10/29 09:20:07;;;;;;;;;;;16.20;96.00;;;;;;4984867;28;19921;-69
2022/10/29 09:23:02;;;;;;;;;;;16.20;96.00;;;;;;4985410;28;19920;-69
2022/10/29 09:25:42;;;;;;;;;;;16.20;96.00;;;;;;4984362;28;19925;-68
2022/10/29 09:28:26;;;;;;;;;;;16.30;96.00;;;;;;4985897;28;19921;-69
2022/10/29 09:30:54;;;;;;;;;;;16.30;95.90;;;;;;4988249;28;19917;-69
2022/10/29 09:33:22;;;;;;;;;;;16.40;95.90;;;;;;4988481;28;19913;-69
2022/10/29 09:35:52;;;;;;;;;;;16.40;96.00;;;;;;4988531;28;20381;-69
2022/10/29 09:38:17;;;;;;;;;;;16.50;96.00;;;;;;4986613;28;19941;-69
2022/10/29 09:40:43;;;;;;;;;;;16.60;95.80;;;;;;5000757;28;19917;-69
2022/10/29 09:43:20;;;;;;;;;;;16.60;95.70;;;;;;4989632;28;19913;-68
2022/10/29 09:45:52;;;;;;;;;;;16.60;95.80;;;;;;4987858;28;19921;-68
2022/10/29 09:48:35;;;;;;;;;;;16.70;95.70;;;;;;4988213;28;19922;-69
2022/10/29 09:51:07;;;;;;;;;;;16.70;95.80;;;;;;4986376;28;19913;-69
2022/10/29 09:53:32;;;;;;;;;;;16.70;95.70;;;;;;4988176;28;19964;-69
2022/10/29 09:55:58;;;;;;;;;;;16.80;95.70;;;;;;4988245;28;20504;-69
2022/10/29 09:58:25;;;;;;;;;;;16.80;95.70;;;;;;4987982;28;20701;-69
2022/10/29 10:00:51;;;;;;;;;;;16.90;95.80;;;;;;4987472;28;19918;-69
2022/10/29 10:03:19;;;;;;;;;;;16.90;95.70;;;;;;4987288;28;20654;-68
2022/10/29 10:06:03;;;;;;;;;;;16.90;95.80;;;;;;4987545;28;19960;-69
2022/10/29 10:08:30;;;;;;;;;;;16.90;95.60;;;;;;4987214;28;20362;-69
2022/10/29 10:10:58;;;;;;;;;;;17.00;95.60;;;;;;4985512;28;20398;-69
2022/10/29 10:13:27;;;;;;;;;;;17.00;95.60;;;;;;4987267;28;20044;-69
2022/10/29 10:15:54;;;;;;;;;;;17.00;95.60;;;;;;4986775;28;19921;-69
2022/10/29 10:18:24;;;;;;;;;;;17.00;95.70;;;;;;4986952;28;20000;-69
2022/10/29 10:20:59;;;;;;;;;;;17.00;95.70;;;;;;4987174;28;20337;-69
2022/10/29 10:23:29;;;;;;;;;;;17.10;95.60;;;;;;4968160;28;19922;-69
2022/10/29 10:25:55;;;;;;;;;;;17.10;95.60;;;;;;4968337;28;19988;-68
2022/10/29 10:28:21;;;;;;;;;;;17.10;95.60;;;;;;4971568;28;19971;-68
2022/10/29 10:31:05;;;;;;;;;;;17.10;95.90;;;;;;4986644;28;19931;-69
2022/10/29 10:33:32;;;;;;;;;;;17.20;95.60;;;;;;4986664;28;19910;-69
2022/10/29 10:36:05;;;;;;;;;;;17.20;95.50;;;;;;4986307;28;20363;-69
2022/10/29 10:38:39;;;;;;;;;;;17.30;95.70;;;;;;4986011;28;19914;-69
2022/10/29 10:41:06;;;;;;;;;;;17.30;95.70;;;;;;4986470;28;19921;-69
2022/10/29 10:43:33;;;;;;;;;;;17.30;95.70;;;;;;4986700;28;19914;-70
2022/10/29 10:46:02;;;;;;;;;;;17.30;95.60;;;;;;4985585;28;19914;-69
2022/10/29 10:48:28;;;;;;;;;;;17.40;95.80;;;;;;4989027;28;19949;-67
2022/10/29 10:51:28;;;;;;;;;;;17.50;95.60;;;;;;4990956;28;20012;-68
2022/10/29 10:53:54;;;;;;;;;;;17.50;95.80;;;;;;4962452;28;19921;-69
2022/10/29 10:56:21;;;;;;;;;;;17.80;96.30;;;;;;4981935;28;20299;-69
2022/10/29 10:58:50;;;;;;;;;;;18.00;95.90;;;;;;4985679;28;19921;-69
2022/10/29 11:01:22;;;;;;;;;;;18.10;95.90;;;;;;4985909;28;19974;-68
2022/10/29 11:03:53;;;;;;;;;;;18.20;95.50;;;;;;4986013;28;19921;-68
2022/10/29 11:06:19;;;;;;;;;;;18.20;95.40;;;;;;4983469;28;19921;-68
2022/10/29 11:08:50;;;;;;;;;;;18.30;95.60;;;;;;4985826;28;19921;-69
2022/10/29 11:11:24;;;;;;;;;;;18.30;95.60;;;;;;4985213;28;19948;-68
2022/10/29 11:13:50;;;;;;;;;;;18.40;95.50;;;;;;4986857;28;19909;-69
2022/10/29 11:16:26;;;;;;;;;;;18.50;95.20;;;;;;4986496;28;20414;-68
2022/10/29 11:18:56;;;;;;;;;;;18.50;94.80;;;;;;4986704;28;19956;-68
2022/10/29 11:21:24;;;;;;;;;;;18.60;94.30;;;;;;4986687;28;19921;-69
2022/10/29 11:23:52;;;;;;;;;;;18.60;94.50;;;;;;4986626;28;19913;-68
2022/10/29 11:26:18;;;;;;;;;;;18.60;94.40;;;;;;4986212;28;19910;-68
2022/10/29 11:28:48;;;;;;;;;;;18.70;94.20;;;;;;4986103;28;19929;-68
2022/10/29 11:31:13;;;;;;;;;;;18.80;94.10;;;;;;4986799;28;20017;-68
2022/10/29 11:33:42;;;;;;;;;;;18.90;94.00;;;;;;4985885;28;20004;-68
2022/10/29 11:36:15;;;;;;;;;;;18.90;94.10;;;;;;4966194;28;20040;-68
2022/10/29 11:38:47;;;;;;;;;;;19.00;93.60;;;;;;4985063;28;19913;-69
2022/10/29 11:41:19;;;;;;;;;;;19.10;93.60;;;;;;4984332;28;19921;-68
2022/10/29 11:43:45;;;;;;;;;;;19.00;93.50;;;;;;4983991;28;20330;-68
2022/10/29 11:46:30;;;;;;;;;;;19.00;93.40;;;;;;4984401;28;20009;-69
2022/10/29 11:48:55;;;;;;;;;;;19.20;93.00;;;;;;4992972;28;20486;-68
2022/10/29 11:51:24;;;;;;;;;;;19.30;93.00;;;;;;4983291;28;19918;-68
2022/10/29 11:54:01;;;;;;;;;;;19.30;92.60;;;;;;4985108;28;20364;-69
2022/10/29 11:56:45;;;;;;;;;;;19.30;92.50;;;;;;4984896;28;20056;-69
2022/10/29 11:59:16;;;;;;;;;;;19.40;92.20;;;;;;4985001;28;19913;-69
2022/10/29 12:01:42;;;;;;;;;;;19.40;92.30;;;;;;5000631;28;19944;-68
2022/10/29 12:04:24;;;;;;;;;;;19.40;92.30;;;;;;5004237;28;19914;-68
2022/10/29 12:07:08;;;;;;;;;;;19.50;92.00;;;;;;4999932;28;19929;-69
2022/10/29 12:09:42;;;;;;;;;;;19.50;91.70;;;;;;4984638;28;20534;-69
2022/10/29 12:12:16;;;;;;;;;;;19.50;91.70;;;;;;4985038;28;20609;-69
2022/10/29 12:14:46;;;;;;;;;;;19.50;91.80;;;;;;4984764;28;19949;-68
2022/10/29 12:17:11;;;;;;;;;;;19.60;91.80;;;;;;4990221;28;19920;-71
2022/10/29 12:19:37;;;;;;;;;;;19.60;91.50;;;;;;4994404;28;19914;-68
2022/10/29 12:22:21;;;;;;;;;;;19.70;91.50;;;;;;4992822;28;19965;-70
2022/10/29 12:24:52;;;;;;;;;;;19.60;91.70;;;;;;4989883;28;19917;-69
2022/10/29 12:27:17;;;;;;;;;;;19.70;91.80;;;;;;4994543;28;19969;-70
2022/10/29 12:29:58;;;;;;;;;;;19.70;91.60;;;;;;4994201;28;19968;-69
2022/10/29 12:32:28;;;;;;;;;;;19.70;91.90;;;;;;4994719;28;19936;-69
2022/10/29 12:34:56;;;;;;;;;;;19.70;91.50;;;;;;4993412;28;19964;-68
2022/10/29 12:37:28;;;;;;;;;;;19.70;91.70;;;;;;4994377;28;20314;-68
2022/10/29 12:40:02;;;;;;;;;;;19.70;91.90;;;;;;4991572;28;19977;-68
2022/10/29 12:42:29;;;;;;;;;;;19.70;92.20;;;;;;4989849;28;20015;-69
2022/10/29 12:45:13;;;;;;;;;;;19.70;91.90;;;;;;4987584;28;19929;-69
2022/10/29 12:47:44;;;;;;;;;;;19.80;91.70;;;;;;4993999;28;20012;-68
2022/10/29 12:50:16;;;;;;;;;;;19.80;92.40;;;;;;4992901;28;19924;-68
2022/10/29 12:52:47;;;;;;;;;;;19.80;92.80;;;;;;4991597;28;19925;-68
2022/10/29 12:55:14;;;;;;;;;;;19.80;92.80;;;;;;4990988;28;19917;-69
2022/10/29 12:57:39;;;;;;;;;;;19.90;92.50;;;;;;4981287;28;20271;-68
2022/10/29 13:00:23;;;;;;;;;;;19.90;92.40;;;;;;4985195;28;19925;-69
2022/10/29 13:02:50;;;;;;;;;;;19.90;92.80;;;;;;4982547;28;20485;-68
2022/10/29 13:05:36;;;;;;;;;;;19.90;93.20;;;;;;4991462;28;19925;-68
2022/10/29 13:08:02;;;;;;;;;;;20.00;93.40;;;;;;4985005;28;20016;-68
2022/10/29 13:10:33;;;;;;;;;;;20.00;93.10;;;;;;4995597;28;20490;-68
2022/10/29 13:13:10;;;;;;;;;;;20.10;93.00;;;;;;4990588;28;20005;-68
2022/10/29 13:15:40;;;;;;;;;;;20.10;93.10;;;;;;4989741;28;19918;-68
2022/10/29 13:18:18;;;;;;;;;;;20.20;93.00;;;;;;4987888;28;19913;-68
2022/10/29 13:20:51;;;;;;;;;;;20.20;92.70;;;;;;4990514;28;19917;-68
2022/10/29 13:23:22;;;;;;;;;;;20.30;92.40;;;;;;4990173;28;19917;-69
2022/10/29 13:25:54;;;;;;;;;;;20.30;92.40;;;;;;4987161;28;19921;-69
2022/10/29 13:28:20;;;;;;;;;;;20.30;92.10;;;;;;4995055;28;19918;-68
2022/10/29 13:30:49;;;;;;;;;;;20.30;91.80;;;;;;4998360;28;19917;-69
2022/10/29 13:33:27;;;;;;;;;;;20.30;91.70;;;;;;4997375;28;20706;-68
2022/10/29 13:35:53;;;;;;;;;;;20.30;91.80;;;;;;4992196;28;20405;-68
2022/10/29 13:38:37;;;;;;;;;;;20.30;91.90;;;;;;4990667;28;20083;-68
2022/10/29 13:41:08;;;;;;;;;;;20.40;91.70;;;;;;4992352;28;19917;-69
2022/10/29 13:43:34;;;;;;;;;;;20.40;91.60;;;;;;4993765;28;20303;-68
2022/10/29 13:46:13;;;;;;;;;;;20.40;91.40;;;;;;4986067;28;19917;-68
2022/10/29 13:48:39;;;;;;;;;;;20.50;91.50;;;;;;4992350;28;20046;-69
2022/10/29 13:51:10;;;;;;;;;;;20.50;91.30;;;;;;4995340;28;19952;-68
2022/10/29 13:53:38;;;;;;;;;;;20.60;91.70;;;;;;4995352;28;20000;-69
2022/10/29 13:56:07;;;;;;;;;;;20.60;91.10;;;;;;4996108;28;19921;-68
2022/10/29 13:58:33;;;;;;;;;;;20.60;91.30;;;;;;4994514;28;19971;-68
2022/10/29 14:01:00;;;;;;;;;;;20.60;91.40;;;;;;4992738;28;19921;-68
2022/10/29 14:03:29;;;;;;;;;;;20.60;91.60;;;;;;4985410;28;19924;-68
2022/10/29 14:06:03;;;;;;;;;;;20.50;91.60;;;;;;4999160;28;19917;-68
2022/10/29 14:08:47;;;;;;;;;;;20.50;91.20;;;;;;4996794;28;20028;-68
2022/10/29 14:11:19;;;;;;;;;;;20.50;91.70;;;;;;4994593;28;19921;-69
2022/10/29 14:13:45;;;;;;;;;;;20.50;91.90;;;;;;4991122;28;19964;-69
2022/10/29 14:16:12;;;;;;;;;;;20.40;92.40;;;;;;4993162;28;19921;-68
2022/10/29 14:18:37;;;;;;;;;;;20.40;92.30;;;;;;4992198;28;19964;-69
2022/10/29 14:21:04;;;;;;;;;;;20.40;92.60;;;;;;4987761;28;20058;-68
2022/10/29 14:23:30;;;;;;;;;;;20.40;92.30;;;;;;4997045;28;19922;-68